createdAt,value
2019-05-02T00:01:21.940Z,55.30
2019-05-02T00:03:51.292Z,55.43
2019-05-02T00:06:21.115Z,55.00
2019-05-02T00:08:50.731Z,56.53
2019-05-02T00:11:21.604Z,59.23
2019-05-02T00:13:51.026Z,53.77
2019-05-02T00:16:20.467Z,53.90
2019-05-02T00:18:49.831Z,57.00
2019-05-02T00:21:19.598Z,56.20
2019-05-02T00:23:49.332Z,55.00
2019-05-02T00:26:18.674Z,56.73
2019-05-02T00:28:49.866Z,53.30
2019-05-02T00:31:21.930Z,56.77
2019-05-02T00:33:51.273Z,55.27
2019-05-02T00:36:20.611Z,55.80
2019-05-02T00:38:49.978Z,54.17
2019-05-02T00:41:20.911Z,57.10
2019-05-02T00:43:50.297Z,53.93
2019-05-02T00:46:19.712Z,52.90
2019-05-02T00:48:59.516Z,53.90
2019-05-02T00:51:26.803Z,52.73
2019-05-02T00:53:56.312Z,54.40
2019-05-02T00:56:26.621Z,53.17
2019-05-02T00:58:56.490Z,51.87
2019-05-02T01:01:47.400Z,52.27
2019-05-02T01:04:27.655Z,53.00
2019-05-02T01:06:54.429Z,50.80
2019-05-02T01:09:23.796Z,49.30
2019-05-02T01:11:53.278Z,51.10
2019-05-02T01:14:22.640Z,51.60
2019-05-02T01:16:54.276Z,53.40
2019-05-02T01:19:23.020Z,50.40
2019-05-02T01:21:52.297Z,53.10
2019-05-02T01:24:21.661Z,48.43
2019-05-02T01:27:04.643Z,48.30
2019-05-02T01:29:39.728Z,50.70
2019-05-02T01:32:25.239Z,50.10
2019-05-02T01:35:01.632Z,50.10
2019-05-02T01:37:54.806Z,48.83
2019-05-02T01:40:23.777Z,49.40
2019-05-02T01:42:56.284Z,53.07
2019-05-02T01:45:25.652Z,46.73
2019-05-02T01:47:54.949Z,50.10
2019-05-02T01:50:24.286Z,49.63
2019-05-02T01:52:58.106Z,48.67
2019-05-02T01:55:24.750Z,51.80
2019-05-02T01:57:54.097Z,52.70
2019-05-02T02:00:23.315Z,50.40
2019-05-02T02:02:52.730Z,52.40
2019-05-02T02:05:22.104Z,52.70
2019-05-02T02:07:55.548Z,49.23
2019-05-02T02:10:22.886Z,53.40
2019-05-02T02:13:03.690Z,48.30
2019-05-02T02:15:25.094Z,49.67
2019-05-02T02:17:54.283Z,48.40
2019-05-02T02:20:25.447Z,45.83
2019-05-02T02:23:02.738Z,48.13
2019-05-02T02:25:45.592Z,47.00
2019-05-02T02:28:14.897Z,47.67
2019-05-02T02:30:44.393Z,43.00
2019-05-02T02:33:13.749Z,47.10
2019-05-02T02:35:49.573Z,47.20
2019-05-02T02:38:14.144Z,48.20
2019-05-02T02:40:43.429Z,46.30
2019-05-02T02:43:32.442Z,47.23
2019-05-02T02:46:07.011Z,45.27
2019-05-02T02:48:40.539Z,42.30
2019-05-02T02:51:07.871Z,48.33
2019-05-02T02:53:37.194Z,43.80
2019-05-02T02:56:07.756Z,46.10
2019-05-02T02:58:45.659Z,46.13
2019-05-02T03:01:08.804Z,45.80
2019-05-02T03:03:38.182Z,46.00
2019-05-02T03:06:08.288Z,43.80
2019-05-02T03:08:46.632Z,46.70
2019-05-02T03:11:22.316Z,47.40
2019-05-02T03:14:09.738Z,47.27
2019-05-02T03:16:46.035Z,46.70
2019-05-02T03:19:14.616Z,45.43
2019-05-02T03:21:54.269Z,44.63
2019-05-02T03:24:26.389Z,44.20
2019-05-02T03:26:58.408Z,43.20
2019-05-02T03:29:39.717Z,42.90
2019-05-02T03:32:25.968Z,43.10
2019-05-02T03:34:45.309Z,47.70
2019-05-02T03:37:03.081Z,44.77
2019-05-02T03:39:31.721Z,46.70
2019-05-02T03:42:03.000Z,50.53
2019-05-02T03:44:32.291Z,51.13
2019-05-02T03:47:04.487Z,53.10
2019-05-02T03:49:32.697Z,51.40
2019-05-02T03:52:03.659Z,51.10
2019-05-02T03:54:33.043Z,50.23
2019-05-02T03:57:02.658Z,53.10
2019-05-02T03:59:38.964Z,52.67
2019-05-02T04:02:03.006Z,52.07
2019-05-02T04:04:32.619Z,47.87
2019-05-02T04:07:03.475Z,49.07
2019-05-02T04:09:38.719Z,50.23
2019-05-02T04:12:11.694Z,49.00
2019-05-02T04:14:38.903Z,48.73
2019-05-02T04:17:10.650Z,50.90
2019-05-02T04:19:40.604Z,52.97
2019-05-02T04:22:11.940Z,53.27
2019-05-02T04:24:47.918Z,48.07
2019-05-02T04:27:13.839Z,45.40
2019-05-02T04:29:43.419Z,49.60
2019-05-02T04:32:14.543Z,49.40
2019-05-02T04:34:48.846Z,48.90
2019-05-02T04:37:14.804Z,48.50
2019-05-02T04:39:44.127Z,49.30
2019-05-02T04:42:19.615Z,57.60
2019-05-02T04:45:08.801Z,60.00
2019-05-02T04:47:20.678Z,52.67
2019-05-02T04:49:51.339Z,52.80
2019-05-02T04:52:21.006Z,54.77
2019-05-02T04:54:48.942Z,61.77
2019-05-02T04:57:18.927Z,57.43
2019-05-02T04:59:50.615Z,56.30
2019-05-02T05:02:21.187Z,52.50
2019-05-02T05:04:50.727Z,55.83
2019-05-02T05:07:20.116Z,53.83
2019-05-02T05:09:57.139Z,51.23
2019-05-02T05:12:20.489Z,50.10
2019-05-02T05:14:52.720Z,54.10
2019-05-02T05:17:25.132Z,51.67
2019-05-02T05:19:53.209Z,52.60
2019-05-02T05:22:22.640Z,51.47
2019-05-02T05:25:01.627Z,54.30
2019-05-02T05:27:41.538Z,49.53
2019-05-02T05:30:15.501Z,50.77
2019-05-02T05:32:42.406Z,49.67
2019-05-02T05:35:12.960Z,51.27
2019-05-02T05:37:43.239Z,48.67
2019-05-02T05:40:13.403Z,48.87
2019-05-02T05:42:42.804Z,52.03
2019-05-02T05:45:13.980Z,49.63
2019-05-02T05:47:43.308Z,48.77
2019-05-02T05:50:12.827Z,48.50
2019-05-02T05:52:43.257Z,48.87
2019-05-02T05:55:17.126Z,51.60
2019-05-02T05:57:44.158Z,47.10
2019-05-02T06:00:18.669Z,45.37
2019-05-02T06:02:53.890Z,47.50
2019-05-02T06:05:17.469Z,47.27
2019-05-02T06:07:47.435Z,47.50
2019-05-02T06:10:17.294Z,47.90
2019-05-02T06:12:46.697Z,47.20
2019-05-02T06:15:16.020Z,44.57
2019-05-02T06:17:45.462Z,44.33
2019-05-02T06:20:15.041Z,50.00
2019-05-02T06:22:44.352Z,52.50
2019-05-02T06:25:14.243Z,47.60
2019-05-02T06:27:43.549Z,46.73
2019-05-02T06:30:13.315Z,49.87
2019-05-02T06:32:42.620Z,51.10
2019-05-02T06:35:17.173Z,46.50
2019-05-02T06:37:50.089Z,48.23
2019-05-02T06:40:17.303Z,49.03
2019-05-02T06:42:46.704Z,51.20
2019-05-02T06:45:16.217Z,50.50
2019-05-02T06:47:45.629Z,45.93
2019-05-02T06:50:15.404Z,48.90
2019-05-02T06:52:44.684Z,44.93
2019-05-02T06:55:14.045Z,43.70
2019-05-02T06:57:43.307Z,45.73
2019-05-02T07:00:13.312Z,46.27
2019-05-02T07:02:42.638Z,46.87
2019-05-02T07:05:12.073Z,47.80
2019-05-02T07:07:42.499Z,49.23
2019-05-02T07:10:12.149Z,46.20
2019-05-02T07:12:41.475Z,47.27
2019-05-02T07:15:25.882Z,50.37
2019-05-02T07:17:59.142Z,44.93
2019-05-02T07:20:28.816Z,45.20
2019-05-02T07:22:58.160Z,46.43
2019-05-02T07:25:27.569Z,48.50
2019-05-02T07:27:56.889Z,44.37
2019-05-02T07:30:30.023Z,42.20
2019-05-02T07:33:01.214Z,45.20
2019-05-02T07:35:28.293Z,45.50
2019-05-02T07:37:57.624Z,41.57
2019-05-02T07:40:26.956Z,43.73
2019-05-02T07:42:58.588Z,47.50
2019-05-02T07:45:30.981Z,47.10
2019-05-02T07:48:01.586Z,43.87
2019-05-02T07:50:31.112Z,43.90
2019-05-02T07:53:04.453Z,45.30
2019-05-02T07:55:35.328Z,42.80
2019-05-02T07:58:06.971Z,42.00
2019-05-02T08:00:37.098Z,42.47
2019-05-02T08:03:17.465Z,43.43
2019-05-02T08:05:46.952Z,43.13
2019-05-02T08:08:16.301Z,48.40
2019-05-02T08:10:45.740Z,46.40
2019-05-02T08:13:17.578Z,41.20
2019-05-02T08:15:50.910Z,41.90
2019-05-02T08:18:18.810Z,42.23
2019-05-02T08:20:50.940Z,44.87
2019-05-02T08:23:20.647Z,43.43
2019-05-02T08:25:50.670Z,42.93
2019-05-02T08:28:28.925Z,42.90
2019-05-02T08:30:58.830Z,41.67
2019-05-02T08:33:29.110Z,43.30
2019-05-02T08:35:59.235Z,40.50
2019-05-02T08:38:28.504Z,45.13
2019-05-02T08:40:57.800Z,44.40
2019-05-02T08:43:27.223Z,41.60
2019-05-02T08:45:56.605Z,43.53
2019-05-02T08:48:25.950Z,42.63
2019-05-02T08:50:55.246Z,43.87
2019-05-02T08:53:24.474Z,43.33
2019-05-02T08:55:53.860Z,43.00
2019-05-02T08:58:23.907Z,47.53
2019-05-02T09:00:53.222Z,41.70
2019-05-02T09:03:23.148Z,44.07
2019-05-02T09:06:04.959Z,41.60
2019-05-02T09:08:23.643Z,38.57
2019-05-02T09:10:53.069Z,39.30
2019-05-02T09:13:26.479Z,38.67
2019-05-02T09:15:54.305Z,41.60
2019-05-02T09:18:30.085Z,41.83
2019-05-02T09:20:56.566Z,41.27
2019-05-02T09:23:27.527Z,42.43
2019-05-02T09:25:57.331Z,40.07
2019-05-02T09:28:26.633Z,39.53
2019-05-02T09:30:57.379Z,37.57
2019-05-02T09:33:27.020Z,36.67
2019-05-02T09:35:56.341Z,40.60
2019-05-02T09:38:25.704Z,40.67
2019-05-02T09:40:56.286Z,37.30
2019-05-02T09:43:29.357Z,39.47
2019-05-02T09:45:56.813Z,39.07
2019-05-02T09:48:26.977Z,37.00
2019-05-02T09:50:58.080Z,34.10
2019-05-02T09:53:27.736Z,35.17
2019-05-02T09:55:58.063Z,36.33
2019-05-02T09:58:27.391Z,30.70
2019-05-02T10:01:02.732Z,35.40
2019-05-02T10:03:33.032Z,32.60
2019-05-02T10:06:03.186Z,34.43
2019-05-02T10:08:32.767Z,34.57
2019-05-02T10:11:02.958Z,32.43
2019-05-02T10:13:33.658Z,27.33
2019-05-02T10:16:02.953Z,28.37
2019-05-02T10:18:32.978Z,29.73
2019-05-02T10:21:03.141Z,29.67
2019-05-02T10:23:32.709Z,28.23
2019-05-02T10:26:02.856Z,28.77
2019-05-02T10:28:32.419Z,27.93
2019-05-02T10:31:02.305Z,29.93
2019-05-02T10:33:35.828Z,30.60
2019-05-02T10:36:03.384Z,30.17
2019-05-02T10:38:36.436Z,26.47
2019-05-02T10:41:05.844Z,28.50
2019-05-02T10:43:35.234Z,28.70
2019-05-02T10:46:12.555Z,26.20
2019-05-02T10:48:47.401Z,30.17
2019-05-02T10:51:35.428Z,26.63
2019-05-02T10:54:08.160Z,26.00
2019-05-02T10:56:37.496Z,25.97
2019-05-02T10:59:06.895Z,27.77
2019-05-02T11:01:55.121Z,25.03
2019-05-02T11:04:29.189Z,27.20
2019-05-02T11:06:56.815Z,26.07
2019-05-02T11:09:26.578Z,25.87
2019-05-02T11:11:56.084Z,21.83
2019-05-02T11:14:37.415Z,21.33
2019-05-02T11:17:17.458Z,22.17
2019-05-02T11:19:54.322Z,19.30
2019-05-02T11:22:23.621Z,18.47
2019-05-02T11:24:52.995Z,17.90
2019-05-02T11:27:22.335Z,19.07
2019-05-02T11:29:52.617Z,19.90
2019-05-02T11:32:24.608Z,17.97
2019-05-02T11:34:53.924Z,19.93
2019-05-02T11:37:23.185Z,19.67
2019-05-02T11:39:58.340Z,21.03
2019-05-02T11:42:27.178Z,21.63
2019-05-02T11:44:54.694Z,22.90
2019-05-02T11:47:26.550Z,22.47
2019-05-02T11:49:56.007Z,18.07
2019-05-02T11:52:27.551Z,20.50
2019-05-02T11:54:56.690Z,21.37
2019-05-02T11:57:28.468Z,21.50
2019-05-02T11:59:59.379Z,19.43
2019-05-02T12:02:49.142Z,20.60
2019-05-02T12:05:22.086Z,21.80
2019-05-02T12:07:52.640Z,21.60
2019-05-02T12:10:22.247Z,21.80
2019-05-02T12:12:52.689Z,22.60
2019-05-02T12:15:22.092Z,23.50
2019-05-02T12:17:51.690Z,24.50
2019-05-02T12:20:22.747Z,26.67
2019-05-02T12:22:52.779Z,24.90
2019-05-02T12:25:22.403Z,27.53
2019-05-02T12:27:52.689Z,28.90
2019-05-02T12:30:23.976Z,28.00
2019-05-02T12:32:53.653Z,28.37
2019-05-02T12:35:23.102Z,28.60
2019-05-02T12:37:55.211Z,29.60
2019-05-02T12:40:23.445Z,28.10
2019-05-02T12:42:53.238Z,27.77
2019-05-02T12:45:22.623Z,29.30
2019-05-02T12:47:52.345Z,26.07
2019-05-02T12:50:22.576Z,30.60
2019-05-02T12:52:52.491Z,32.43
2019-05-02T12:55:24.565Z,30.70
2019-05-02T12:57:53.885Z,32.47
2019-05-02T13:00:23.194Z,32.97
2019-05-02T13:03:14.520Z,32.10
2019-05-02T13:05:42.643Z,33.00
2019-05-02T13:08:12.414Z,34.87
2019-05-02T13:11:02.163Z,33.90
2019-05-02T13:13:28.134Z,35.83
2019-05-02T13:16:00.586Z,35.50
2019-05-02T13:18:34.618Z,34.33
2019-05-02T13:21:02.206Z,35.80
2019-05-02T13:23:49.209Z,33.03
2019-05-02T13:26:22.921Z,36.50
2019-05-02T13:28:51.611Z,35.03
2019-05-02T13:31:32.042Z,36.70
2019-05-02T13:34:14.827Z,40.07
2019-05-02T13:36:47.257Z,36.43
2019-05-02T13:39:35.508Z,37.10
2019-05-02T13:42:04.853Z,36.30
2019-05-02T13:44:37.055Z,37.60
2019-05-02T13:47:09.770Z,40.00
2019-05-02T13:49:52.887Z,44.30
2019-05-02T13:52:11.780Z,45.77
2019-05-02T13:54:42.642Z,45.00
2019-05-02T13:57:12.314Z,46.40
2019-05-02T13:59:41.801Z,46.80
2019-05-02T14:02:31.874Z,46.60
2019-05-02T14:05:02.436Z,51.90
2019-05-02T14:07:32.632Z,48.77
2019-05-02T14:10:06.037Z,49.93
2019-05-02T14:12:52.869Z,51.37
2019-05-02T14:15:25.132Z,46.07
2019-05-02T14:17:54.388Z,50.67
2019-05-02T14:20:23.964Z,51.73
2019-05-02T14:22:53.319Z,52.10
2019-05-02T14:25:22.716Z,51.77
2019-05-02T14:27:55.465Z,49.30
2019-05-02T14:30:35.961Z,50.30
2019-05-02T14:32:57.387Z,50.30
2019-05-02T14:35:32.593Z,51.60
2019-05-02T14:38:13.371Z,50.60
2019-05-02T14:41:05.287Z,50.60
2019-05-02T14:43:53.604Z,51.53
2019-05-02T14:46:34.031Z,49.10
2019-05-02T14:48:57.356Z,42.17
2019-05-02T14:51:27.833Z,31.10
2019-05-02T14:54:02.560Z,32.03
2019-05-02T14:56:56.479Z,31.50
2019-05-02T14:59:28.685Z,32.67
2019-05-02T15:02:03.898Z,11.90
2019-05-02T15:04:32.142Z,7.70
2019-05-02T15:07:02.064Z,6.43
2019-05-02T15:09:32.716Z,6.60
2019-05-02T15:12:03.694Z,6.73
2019-05-02T15:14:35.034Z,7.00
2019-05-02T15:17:04.961Z,7.67
2019-05-02T15:19:34.326Z,11.53
2019-05-02T15:22:04.189Z,13.43
2019-05-02T15:24:37.601Z,14.40
2019-05-02T15:27:12.209Z,13.40
2019-05-02T15:29:35.575Z,15.33
2019-05-02T15:32:37.272Z,15.67
2019-05-02T15:35:17.802Z,14.07
2019-05-02T15:37:46.287Z,16.10
2019-05-02T15:42:56.660Z,18.10
2019-05-02T15:45:24.181Z,18.47
2019-05-02T15:47:53.587Z,17.93
2019-05-02T15:50:25.572Z,19.77
2019-05-02T15:53:03.212Z,19.23
2019-05-02T15:55:32.391Z,16.97
2019-05-02T15:58:02.573Z,20.53
2019-05-02T16:00:35.988Z,18.37
2019-05-02T16:03:05.637Z,19.57
2019-05-02T16:05:36.689Z,19.90
2019-05-02T16:08:08.957Z,20.60
2019-05-02T16:10:38.762Z,19.67
2019-05-02T16:13:15.738Z,20.77
2019-05-02T16:15:40.233Z,21.77
2019-05-02T16:18:10.123Z,22.23
2019-05-02T16:21:01.575Z,22.03
2019-05-02T16:23:29.649Z,23.87
2019-05-02T16:25:52.365Z,21.10
2019-05-02T16:28:21.869Z,22.90
2019-05-02T16:30:53.144Z,22.50
2019-05-02T16:33:22.824Z,24.33
2019-05-02T16:35:54.462Z,21.90
2019-05-02T16:38:26.727Z,23.87
2019-05-02T16:40:57.221Z,22.60
2019-05-02T16:43:28.659Z,29.90
2019-05-02T16:45:58.016Z,25.27
2019-05-02T16:48:32.396Z,97.50
2019-05-02T16:50:58.259Z,125.83
2019-05-02T16:53:27.591Z,25.90
2019-05-02T16:55:58.515Z,28.87
2019-05-02T16:58:31.896Z,35.23
2019-05-02T17:00:59.509Z,31.40
2019-05-02T17:03:31.496Z,23.73
2019-05-02T17:06:01.751Z,24.90
2019-05-02T17:08:57.169Z,25.23
2019-05-02T17:11:27.809Z,22.83
2019-05-02T17:13:56.428Z,23.77
2019-05-02T17:16:26.153Z,22.83
2019-05-02T17:18:56.637Z,22.47
2019-05-02T17:21:26.776Z,22.23
2019-05-02T17:23:57.249Z,21.40
2019-05-02T17:26:26.689Z,22.87
2019-05-02T17:28:56.025Z,23.20
2019-05-02T17:31:25.794Z,22.60
2019-05-02T17:33:55.149Z,21.53
2019-05-02T17:36:28.402Z,24.77
2019-05-02T17:39:06.257Z,24.60
2019-05-02T17:41:37.065Z,24.30
2019-05-02T17:44:06.039Z,20.50
2019-05-02T17:46:42.837Z,21.13
2019-05-02T17:49:12.409Z,23.00
2019-05-02T17:52:05.770Z,24.53
2019-05-02T17:54:31.747Z,21.77
2019-05-02T17:57:02.193Z,22.90
2019-05-02T17:59:34.647Z,25.43
2019-05-02T18:02:06.628Z,26.20
2019-05-02T18:04:35.547Z,24.20
2019-05-02T18:07:04.827Z,24.03
2019-05-02T18:09:35.160Z,24.37
2019-05-02T18:12:07.099Z,27.90
2019-05-02T18:14:35.897Z,25.30
2019-05-02T18:17:05.512Z,24.40
2019-05-02T18:19:34.943Z,26.17
2019-05-02T18:22:08.325Z,23.97
2019-05-02T18:24:37.459Z,26.30
2019-05-02T18:27:06.941Z,25.63
2019-05-02T18:29:41.588Z,25.17
2019-05-02T18:32:08.283Z,28.80
2019-05-02T18:34:37.666Z,27.37
2019-05-02T18:37:07.312Z,25.43
2019-05-02T18:39:44.752Z,28.30
2019-05-02T18:42:08.153Z,28.80
2019-05-02T18:44:37.394Z,27.07
2019-05-02T18:47:06.912Z,30.03
2019-05-02T18:49:37.219Z,25.93
2019-05-02T18:52:06.612Z,27.23
2019-05-02T18:54:38.606Z,26.87
2019-05-02T18:57:11.808Z,26.30
2019-05-02T18:59:39.619Z,28.63
2019-05-02T19:02:10.818Z,28.03
2019-05-02T19:04:42.341Z,28.93
2019-05-02T19:07:15.759Z,28.93
2019-05-02T19:09:50.969Z,29.30
2019-05-02T19:12:22.245Z,27.60
2019-05-02T19:14:49.782Z,25.57
2019-05-02T19:17:21.939Z,27.13
2019-05-02T19:19:52.719Z,25.20
2019-05-02T19:22:22.946Z,27.13
2019-05-02T19:24:52.716Z,26.30
2019-05-02T19:27:42.910Z,26.40
2019-05-02T19:30:13.519Z,28.07
2019-05-02T19:32:43.620Z,26.90
2019-05-02T19:35:13.673Z,29.27
2019-05-02T19:37:47.561Z,27.37
2019-05-02T19:40:20.071Z,27.00
2019-05-02T19:43:02.432Z,29.93
2019-05-02T19:45:28.746Z,32.63
2019-05-02T19:47:59.812Z,30.80
2019-05-02T19:50:43.979Z,33.50
2019-05-02T19:53:18.108Z,32.70
2019-05-02T19:55:43.937Z,32.40
2019-05-02T19:58:13.894Z,33.20
2019-05-02T20:00:46.294Z,33.87
2019-05-02T20:03:21.762Z,35.20
2019-05-02T20:05:56.629Z,34.23
2019-05-02T20:08:24.618Z,34.40
2019-05-02T20:10:58.266Z,35.37
2019-05-02T20:13:30.629Z,33.13
2019-05-02T20:16:08.299Z,35.00
2019-05-02T20:18:45.576Z,36.53
2019-05-02T20:21:25.971Z,34.70
2019-05-02T20:23:51.787Z,36.87
2019-05-02T20:26:22.084Z,38.50
2019-05-02T20:28:52.746Z,37.07
2019-05-02T20:31:22.375Z,34.83
2019-05-02T20:33:52.089Z,36.53
2019-05-02T20:36:22.788Z,35.60
2019-05-02T20:38:52.752Z,36.93
2019-05-02T20:41:22.411Z,39.07
2019-05-02T20:43:52.065Z,35.67
2019-05-02T20:46:21.976Z,37.20
2019-05-02T20:48:52.638Z,33.17
2019-05-02T20:51:22.761Z,34.37
2019-05-02T20:53:52.709Z,33.13
2019-05-02T20:56:22.983Z,33.57
2019-05-02T20:58:53.355Z,37.77
2019-05-02T21:01:22.883Z,32.67
2019-05-02T21:03:52.312Z,32.10
2019-05-02T21:06:47.250Z,33.37
2019-05-02T21:09:45.153Z,31.50
2019-05-02T21:12:14.486Z,28.30
2019-05-02T21:14:43.800Z,29.40
2019-05-02T21:17:13.226Z,27.67
2019-05-02T21:19:42.553Z,26.33
2019-05-02T21:22:19.216Z,25.60
2019-05-02T21:24:48.998Z,23.20
2019-05-02T21:27:18.276Z,22.63
2019-05-02T21:29:47.627Z,21.60
2019-05-02T21:32:17.502Z,21.43
2019-05-02T21:34:47.259Z,20.30
2019-05-02T21:37:16.878Z,21.73
2019-05-02T21:39:47.530Z,22.07
2019-05-02T21:42:16.948Z,22.03
2019-05-02T21:44:46.191Z,22.13
2019-05-02T21:47:15.401Z,21.40
2019-05-02T21:49:56.588Z,23.33
2019-05-02T21:52:45.158Z,23.40
2019-05-02T21:55:21.905Z,22.30
2019-05-02T21:57:52.159Z,23.27
2019-05-02T22:00:42.233Z,19.57
2019-05-02T22:03:12.597Z,21.07
2019-05-02T22:05:42.386Z,21.53
2019-05-02T22:08:12.202Z,19.67
2019-05-02T22:10:42.681Z,22.03
2019-05-02T22:13:12.413Z,21.33
2019-05-02T22:15:42.123Z,18.87
2019-05-02T22:18:11.372Z,19.93
2019-05-02T22:20:42.783Z,19.60
2019-05-02T22:23:12.310Z,18.27
2019-05-02T22:25:42.009Z,20.53
2019-05-02T22:28:12.583Z,19.13
2019-05-02T22:30:42.909Z,20.43
2019-05-02T22:33:12.508Z,21.80
2019-05-02T22:35:43.377Z,20.23
2019-05-02T22:38:22.208Z,20.83
2019-05-02T22:40:53.707Z,22.50
2019-05-02T22:43:23.165Z,22.33
2019-05-02T22:45:52.572Z,22.17
2019-05-02T22:48:22.725Z,23.10
2019-05-02T22:50:52.301Z,23.33
2019-05-02T22:53:21.654Z,22.03
2019-05-02T22:55:53.209Z,22.70
2019-05-02T22:58:22.525Z,23.77
2019-05-02T23:00:52.336Z,24.53
2019-05-02T23:03:24.120Z,23.03
2019-05-02T23:05:52.764Z,22.33
2019-05-02T23:08:22.113Z,21.30
2019-05-02T23:10:51.946Z,21.83
2019-05-02T23:13:21.981Z,21.47
2019-05-02T23:15:52.338Z,20.20
2019-05-02T23:18:22.787Z,23.33
2019-05-02T23:20:52.609Z,22.33
2019-05-02T23:23:24.194Z,22.57
2019-05-02T23:26:15.097Z,21.87
2019-05-02T23:28:46.747Z,22.47
2019-05-02T23:31:16.347Z,23.70
2019-05-02T23:34:02.027Z,23.80
2019-05-02T23:36:32.870Z,23.33
2019-05-02T23:39:02.531Z,22.50
2019-05-02T23:41:32.900Z,24.70
2019-05-02T23:44:02.996Z,22.50
2019-05-02T23:46:32.296Z,22.47
2019-05-02T23:49:02.120Z,21.10
2019-05-02T23:51:32.078Z,23.40
2019-05-02T23:54:02.093Z,24.00
2019-05-02T23:56:32.505Z,23.33
2019-05-02T23:59:02.703Z,24.07
